createdAt,value
2023-01-19T00:01:26.013Z,57095.44
2023-01-19T00:03:54.479Z,57298.44
2023-01-19T00:06:22.982Z,57300.41
2023-01-19T00:08:52.825Z,57391.97
2023-01-19T00:11:21.441Z,57505.44
2023-01-19T00:13:51.336Z,57620.88
2023-01-19T00:16:23.267Z,57716.41
2023-01-19T00:18:53.437Z,57788.06
2023-01-19T00:21:22.718Z,57788.06
2023-01-19T00:23:52.895Z,57698.50
2023-01-19T00:26:23.183Z,57819.94
2023-01-19T00:28:53.140Z,57807.97
2023-01-19T00:31:22.031Z,58007.03
2023-01-19T00:33:53.033Z,57971.22
2023-01-19T00:36:21.794Z,57987.13
2023-01-19T00:38:50.268Z,58044.88
2023-01-19T00:41:40.320Z,57951.31
2023-01-19T00:44:08.049Z,57935.38
2023-01-19T00:46:36.530Z,57935.38
2023-01-19T00:49:05.145Z,58005.06
2023-01-19T00:51:34.663Z,58060.78
2023-01-19T00:54:05.065Z,58084.69
2023-01-19T00:56:35.493Z,58032.94
2023-01-19T00:59:05.108Z,58090.66
2023-01-19T01:01:45.262Z,58062.78
2023-01-19T01:04:14.976Z,57947.31
2023-01-19T01:06:43.296Z,58036.91
2023-01-19T01:09:13.092Z,57923.44
2023-01-19T01:11:44.135Z,58001.06
2023-01-19T01:14:13.904Z,57927.41
2023-01-19T01:16:42.880Z,57987.13
2023-01-19T01:19:11.382Z,57993.09
2023-01-19T01:21:39.945Z,58024.97
2023-01-19T01:24:10.043Z,57893.56
2023-01-19T01:26:38.540Z,58015.00
2023-01-19T01:29:08.898Z,57927.41
2023-01-19T01:31:38.089Z,57837.84
2023-01-19T01:34:07.348Z,57899.56
2023-01-19T01:36:36.216Z,57690.53
2023-01-19T01:39:05.536Z,57752.25
2023-01-19T01:41:34.469Z,57561.16
2023-01-19T01:44:08.299Z,57445.72
2023-01-19T01:46:38.251Z,57489.50
2023-01-19T01:49:12.040Z,57386.00
2023-01-19T01:51:43.660Z,57419.84
2023-01-19T01:54:17.909Z,57465.63
2023-01-19T01:56:49.352Z,57469.59
2023-01-19T01:59:26.870Z,57519.34
2023-01-19T02:02:17.127Z,57545.22
2023-01-19T02:04:49.240Z,57598.97
2023-01-19T02:07:42.086Z,57493.47
2023-01-19T02:10:29.126Z,57477.56
2023-01-19T02:13:16.308Z,57382.03
2023-01-19T02:15:45.920Z,57497.47
2023-01-19T02:18:15.899Z,57477.56
2023-01-19T02:20:52.332Z,57501.44
2023-01-19T02:23:32.965Z,57310.38
2023-01-19T02:26:03.182Z,57360.13
2023-01-19T02:28:33.468Z,57250.66
2023-01-19T02:31:02.110Z,57276.53
2023-01-19T02:33:30.850Z,57272.56
2023-01-19T02:35:59.595Z,57417.84
2023-01-19T02:38:30.577Z,57439.75
2023-01-19T02:41:02.406Z,57507.41
2023-01-19T02:43:32.662Z,57487.50
2023-01-19T02:46:01.461Z,57278.53
2023-01-19T02:48:30.330Z,57334.25
2023-01-19T02:51:04.579Z,57230.75
2023-01-19T02:54:08.734Z,57171.06
2023-01-19T02:56:50.969Z,57159.09
2023-01-19T02:59:31.163Z,57115.31
2023-01-19T03:02:16.692Z,57274.53
2023-01-19T03:04:59.618Z,57272.56
2023-01-19T03:07:41.584Z,57288.47
2023-01-19T03:10:21.761Z,57545.22
2023-01-19T03:12:59.419Z,57710.44
2023-01-19T03:15:33.948Z,58132.47
2023-01-19T03:18:07.491Z,58558.53
2023-01-19T03:20:36.479Z,58938.81
2023-01-19T03:23:09.549Z,59542.22
2023-01-19T03:25:41.931Z,59723.47
2023-01-19T03:28:13.334Z,60663.69
2023-01-19T03:30:46.794Z,61109.97
2023-01-19T03:33:20.616Z,61978.84
2023-01-19T03:35:53.422Z,62816.00
2023-01-19T03:38:26.387Z,64064.19
2023-01-19T03:41:00.204Z,64610.66
2023-01-19T03:43:32.180Z,65632.03
2023-01-19T03:46:02.381Z,66833.34
2023-01-19T03:48:31.651Z,67947.22
2023-01-19T03:51:03.873Z,68707.97
2023-01-19T03:53:32.208Z,69267.19
2023-01-19T03:56:00.961Z,70931.31
2023-01-19T03:58:30.755Z,71698.75
2023-01-19T04:00:59.273Z,73234.09
2023-01-19T04:03:27.859Z,75282.31
2023-01-19T04:05:58.376Z,76563.09
2023-01-19T04:08:26.786Z,77844.31
2023-01-19T04:10:55.273Z,79638.84
2023-01-19T04:13:23.552Z,80408.22
2023-01-19T04:15:53.996Z,81434.31
2023-01-19T04:18:22.283Z,83230.72
2023-01-19T04:20:50.747Z,84000.91
2023-01-19T04:23:19.244Z,85028.06
2023-01-19T04:25:47.671Z,85284.91
2023-01-19T04:28:16.148Z,86312.47
2023-01-19T04:30:44.683Z,86826.34
2023-01-19T04:33:14.422Z,87340.31
2023-01-19T04:35:43.257Z,88111.41
2023-01-19T04:38:11.727Z,89139.81
2023-01-19T04:40:40.726Z,89654.13
2023-01-19T04:43:10.097Z,90168.50
2023-01-19T04:45:38.640Z,90682.97
2023-01-19T04:48:07.592Z,90682.97
2023-01-19T04:50:37.267Z,91454.81
2023-01-19T04:53:05.774Z,91712.13
2023-01-19T04:55:34.077Z,92741.59
2023-01-19T04:58:02.371Z,92999.00
2023-01-19T05:00:30.676Z,93513.91
2023-01-19T05:02:59.815Z,93513.91
2023-01-19T05:05:28.722Z,94286.38
2023-01-19T05:07:58.466Z,94286.38
2023-01-19T05:10:27.014Z,94801.44
2023-01-19T05:12:55.460Z,95316.59
2023-01-19T05:15:24.247Z,95574.19
2023-01-19T05:17:52.962Z,95574.19
2023-01-19T05:20:21.360Z,95574.19
2023-01-19T05:22:53.785Z,95316.59
2023-01-19T05:25:23.490Z,95831.81
2023-01-19T05:27:51.884Z,96089.47
2023-01-19T05:30:20.759Z,96089.47
2023-01-19T05:32:49.305Z,96089.47
2023-01-19T05:35:20.193Z,96089.47
2023-01-19T05:37:55.631Z,96862.50
2023-01-19T05:40:25.826Z,96862.50
2023-01-19T05:42:54.272Z,96862.50
2023-01-19T05:45:22.667Z,96862.50
2023-01-19T05:47:51.081Z,96862.50
2023-01-19T05:50:20.095Z,96862.50
2023-01-19T05:52:48.727Z,97120.22
2023-01-19T05:55:17.434Z,97377.97
2023-01-19T05:57:47.288Z,97377.97
2023-01-19T06:00:16.987Z,97635.72
2023-01-19T06:02:46.710Z,97635.72
2023-01-19T06:05:18.153Z,97893.50
2023-01-19T06:07:46.610Z,97893.50
2023-01-19T06:10:14.994Z,97893.50
2023-01-19T06:12:44.176Z,97893.50
2023-01-19T06:15:15.295Z,97893.50
2023-01-19T06:17:43.794Z,98151.31
2023-01-19T06:20:14.125Z,98151.31
2023-01-19T06:22:42.475Z,98151.31
2023-01-19T06:25:12.005Z,98151.31
2023-01-19T06:27:44.247Z,98151.31
2023-01-19T06:30:15.363Z,97893.50
2023-01-19T06:32:43.798Z,97893.50
2023-01-19T06:35:12.422Z,97893.50
2023-01-19T06:37:41.653Z,98151.31
2023-01-19T06:40:13.732Z,97893.50
2023-01-19T06:42:42.886Z,97893.50
2023-01-19T06:45:12.232Z,97893.50
2023-01-19T06:47:44.820Z,97635.72
2023-01-19T06:50:13.294Z,97893.50
2023-01-19T06:52:42.791Z,97893.50
2023-01-19T06:55:12.153Z,97377.97
2023-01-19T06:57:41.080Z,97377.97
2023-01-19T07:00:11.791Z,97120.22
2023-01-19T07:02:44.425Z,97377.97
2023-01-19T07:05:14.637Z,97377.97
2023-01-19T07:07:44.912Z,97377.97
2023-01-19T07:10:15.796Z,97377.97
2023-01-19T07:12:46.598Z,97377.97
2023-01-19T07:15:16.021Z,97635.72
2023-01-19T07:17:45.802Z,97635.72
2023-01-19T07:20:15.144Z,97635.72
2023-01-19T07:22:45.835Z,97635.72
2023-01-19T07:25:15.026Z,97635.72
2023-01-19T07:27:45.028Z,97635.72
2023-01-19T07:30:16.179Z,97635.72
2023-01-19T07:32:45.983Z,97377.97
2023-01-19T07:35:14.637Z,97377.97
2023-01-19T07:37:42.991Z,97377.97
2023-01-19T07:40:12.605Z,97377.97
2023-01-19T07:42:41.018Z,97120.22
2023-01-19T07:45:10.577Z,96862.50
2023-01-19T07:47:38.950Z,96862.50
2023-01-19T07:50:10.443Z,97120.22
2023-01-19T07:52:38.817Z,97120.22
2023-01-19T07:55:08.154Z,97377.97
2023-01-19T07:57:37.213Z,97377.97
2023-01-19T08:00:06.722Z,97120.22
2023-01-19T08:02:41.291Z,96862.50
2023-01-19T08:05:11.340Z,96862.50
2023-01-19T08:07:39.792Z,96862.50
2023-01-19T08:10:09.230Z,96862.50
2023-01-19T08:12:37.743Z,96862.50
2023-01-19T08:15:07.350Z,97120.22
2023-01-19T08:17:35.992Z,96862.50
2023-01-19T08:20:04.958Z,96862.50
2023-01-19T08:22:34.732Z,96862.50
2023-01-19T08:25:03.254Z,96604.81
2023-01-19T08:27:31.763Z,96604.81
2023-01-19T08:30:00.239Z,96604.81
2023-01-19T08:32:28.633Z,96862.50
2023-01-19T08:34:57.035Z,97120.22
2023-01-19T08:37:25.735Z,96862.50
2023-01-19T08:39:55.441Z,96862.50
2023-01-19T08:42:23.721Z,96862.50
2023-01-19T08:44:58.202Z,97120.22
2023-01-19T08:47:26.809Z,96862.50
2023-01-19T08:49:55.228Z,96862.50
2023-01-19T08:52:24.773Z,96862.50
2023-01-19T08:54:52.988Z,96604.81
2023-01-19T08:57:22.780Z,96604.81
2023-01-19T08:59:51.098Z,96862.50
2023-01-19T09:02:19.619Z,96862.50
2023-01-19T09:04:47.992Z,96862.50
2023-01-19T09:07:17.587Z,96347.13
2023-01-19T09:09:45.968Z,96089.47
2023-01-19T09:12:14.826Z,96089.47
2023-01-19T09:14:44.603Z,96347.13
2023-01-19T09:17:14.672Z,96089.47
2023-01-19T09:19:43.210Z,95831.81
2023-01-19T09:22:11.614Z,96089.47
2023-01-19T09:24:39.986Z,95831.81
2023-01-19T09:27:09.123Z,95574.19
2023-01-19T09:29:37.443Z,95574.19
2023-01-19T09:32:07.637Z,95574.19
2023-01-19T09:34:36.184Z,95574.19
2023-01-19T09:37:04.986Z,95316.59
2023-01-19T09:39:33.432Z,95831.81
2023-01-19T09:42:08.043Z,95831.81
2023-01-19T09:44:36.833Z,95831.81
2023-01-19T09:47:17.652Z,95831.81
2023-01-19T09:49:52.435Z,95574.19
2023-01-19T09:52:22.460Z,96089.47
2023-01-19T09:54:55.350Z,96089.47
2023-01-19T09:57:25.177Z,95831.81
2023-01-19T09:59:58.055Z,96089.47
2023-01-19T10:02:40.200Z,95574.19
2023-01-19T10:05:26.356Z,95059.00
2023-01-19T10:08:08.681Z,95831.81
2023-01-19T10:10:39.386Z,95831.81
2023-01-19T10:13:37.733Z,96089.47
2023-01-19T10:16:18.931Z,96347.13
2023-01-19T10:18:51.765Z,96604.81
2023-01-19T10:21:23.759Z,96604.81
2023-01-19T10:23:56.763Z,96604.81
2023-01-19T10:26:26.799Z,96862.50
2023-01-19T10:28:58.940Z,97120.22
2023-01-19T10:31:27.522Z,97377.97
2023-01-19T10:33:57.475Z,97635.72
2023-01-19T10:36:30.563Z,98151.31
2023-01-19T10:38:59.562Z,98409.13
2023-01-19T10:41:33.255Z,98151.31
2023-01-19T10:44:03.466Z,97893.50
2023-01-19T10:46:39.778Z,97120.22
2023-01-19T10:49:24.900Z,97635.72
2023-01-19T10:51:54.083Z,98151.31
2023-01-19T10:54:23.515Z,98666.94
2023-01-19T10:56:54.754Z,98924.81
2023-01-19T10:59:35.648Z,98924.81
2023-01-19T11:02:13.947Z,99440.56
2023-01-19T11:04:47.268Z,99440.56
2023-01-19T11:07:20.615Z,99182.69
2023-01-19T11:09:49.762Z,99182.69
2023-01-19T11:12:21.220Z,98666.94
2023-01-19T11:14:51.780Z,98924.81
2023-01-19T11:17:23.793Z,97893.50
2023-01-19T11:20:00.567Z,96604.81
2023-01-19T11:22:31.416Z,96862.50
2023-01-19T11:25:01.610Z,96862.50
2023-01-19T11:27:32.108Z,96347.13
2023-01-19T11:30:09.877Z,97377.97
2023-01-19T11:32:38.314Z,97377.97
2023-01-19T11:35:34.840Z,96862.50
2023-01-19T11:38:16.779Z,96089.47
2023-01-19T11:40:53.873Z,98409.13
2023-01-19T11:43:24.410Z,95316.59
2023-01-19T11:45:53.195Z,95574.19
2023-01-19T11:48:28.378Z,95831.81
2023-01-19T11:51:01.631Z,96347.13
2023-01-19T11:53:34.042Z,94543.91
2023-01-19T11:56:05.885Z,95316.59
2023-01-19T11:58:40.156Z,95316.59
2023-01-19T12:01:17.796Z,96347.13
2023-01-19T12:03:54.780Z,96604.81
2023-01-19T12:06:29.102Z,93513.91
2023-01-19T12:09:02.559Z,92226.81
2023-01-19T12:11:35.840Z,91969.47
2023-01-19T12:14:05.745Z,91454.81
2023-01-19T12:16:39.441Z,93513.91
2023-01-19T12:19:15.812Z,89911.31
2023-01-19T12:21:48.259Z,86569.41
2023-01-19T12:24:19.657Z,88882.69
2023-01-19T12:26:54.523Z,87854.38
2023-01-19T12:29:25.921Z,86055.56
2023-01-19T12:32:20.324Z,87083.34
2023-01-19T12:34:49.939Z,87340.31
2023-01-19T12:37:41.640Z,83744.16
2023-01-19T12:40:25.441Z,84514.44
2023-01-19T12:42:59.898Z,82204.09
2023-01-19T12:45:33.388Z,81434.31
2023-01-19T12:48:03.095Z,82204.09
2023-01-19T12:50:37.806Z,82974.03
2023-01-19T12:53:20.766Z,79638.84
2023-01-19T12:56:00.169Z,78356.94
2023-01-19T12:58:28.928Z,73490.06
2023-01-19T13:01:16.187Z,75026.22
2023-01-19T13:03:47.754Z,77075.53
2023-01-19T13:06:16.145Z,78100.63
2023-01-19T13:08:59.959Z,79126.03
2023-01-19T13:11:33.353Z,78613.28
2023-01-19T13:14:36.631Z,79382.44
2023-01-19T13:17:34.277Z,78613.28
2023-01-19T13:20:29.275Z,78613.28
2023-01-19T13:23:20.095Z,78356.94
2023-01-19T13:26:03.643Z,78356.94
2023-01-19T13:28:37.164Z,79126.03
2023-01-19T13:31:07.135Z,76563.09
2023-01-19T13:33:43.763Z,78356.94
2023-01-19T13:36:23.895Z,67855.38
2023-01-19T13:38:53.419Z,70633.59
2023-01-19T13:41:27.100Z,71698.75
2023-01-19T13:44:01.320Z,70931.31
2023-01-19T13:46:31.601Z,69414.97
2023-01-19T13:49:04.331Z,69373.03
2023-01-19T13:51:32.644Z,69083.44
2023-01-19T13:54:02.868Z,70112.13
2023-01-19T13:56:32.689Z,66368.31
2023-01-19T13:59:10.425Z,67637.78
2023-01-19T14:01:40.786Z,67875.34
2023-01-19T14:04:28.157Z,63583.59
2023-01-19T14:07:00.136Z,65903.38
2023-01-19T14:09:28.731Z,64700.41
2023-01-19T14:12:12.195Z,63362.28
2023-01-19T14:14:41.072Z,62588.75
2023-01-19T14:17:25.154Z,62361.53
2023-01-19T14:19:55.211Z,61907.09
2023-01-19T14:22:39.197Z,62319.66
2023-01-19T14:25:23.052Z,62594.75
2023-01-19T14:27:53.092Z,62586.75
2023-01-19T14:30:25.207Z,61689.84
2023-01-19T14:32:54.412Z,61871.22
2023-01-19T14:35:25.951Z,61675.91
2023-01-19T14:37:54.384Z,62843.91
2023-01-19T14:40:24.619Z,61998.75
2023-01-19T14:42:57.432Z,62198.06
2023-01-19T14:45:31.848Z,61600.19
2023-01-19T14:48:02.779Z,63398.16
2023-01-19T14:50:34.120Z,63495.88
2023-01-19T14:53:05.266Z,62333.63
2023-01-19T14:55:36.660Z,62517.00
2023-01-19T14:58:12.296Z,62403.38
2023-01-19T15:00:41.020Z,62337.59
2023-01-19T15:03:09.981Z,62816.00
2023-01-19T15:05:39.040Z,63053.25
2023-01-19T15:08:09.063Z,62931.63
2023-01-19T15:10:37.624Z,61984.81
2023-01-19T15:13:06.050Z,62249.91
2023-01-19T15:15:36.936Z,61404.88
2023-01-19T15:18:08.244Z,61289.31
2023-01-19T15:20:36.587Z,61562.31
2023-01-19T15:23:04.994Z,61253.44
2023-01-19T15:25:33.571Z,61265.41
2023-01-19T15:28:04.225Z,61185.69
2023-01-19T15:30:33.692Z,61207.63
2023-01-19T15:33:03.604Z,61333.16
2023-01-19T15:35:32.284Z,61498.53
2023-01-19T15:38:00.639Z,61743.66
2023-01-19T15:40:29.270Z,62397.41
2023-01-19T15:42:57.721Z,62839.94
2023-01-19T15:45:38.636Z,63525.78
2023-01-19T15:48:10.343Z,63657.38
2023-01-19T15:50:41.093Z,63944.53
2023-01-19T15:53:15.039Z,64419.19
2023-01-19T15:55:43.565Z,64054.22
2023-01-19T15:58:14.066Z,65101.34
2023-01-19T16:00:43.173Z,65516.31
2023-01-19T16:03:13.114Z,66637.75
2023-01-19T16:05:43.253Z,67767.53
2023-01-19T16:08:27.109Z,68332.56
2023-01-19T16:10:55.742Z,69426.97
2023-01-19T16:13:24.942Z,69798.50
2023-01-19T16:15:53.315Z,69391.00
2023-01-19T16:18:23.227Z,69113.38
2023-01-19T16:20:51.721Z,69550.81
2023-01-19T16:23:20.166Z,69580.75
2023-01-19T16:25:57.103Z,70012.25
2023-01-19T16:28:26.206Z,70931.31
2023-01-19T16:30:55.111Z,71187.13
2023-01-19T16:33:25.156Z,71187.13
2023-01-19T16:35:54.413Z,71954.59
2023-01-19T16:38:23.512Z,72210.47
2023-01-19T16:40:52.048Z,72722.25
2023-01-19T16:43:20.539Z,74002.03
2023-01-19T16:45:59.252Z,75282.31
2023-01-19T16:48:29.550Z,75538.44
2023-01-19T16:51:03.378Z,75538.44
2023-01-19T16:53:34.442Z,75026.22
2023-01-19T16:56:06.493Z,74770.16
2023-01-19T16:58:37.524Z,74770.16
2023-01-19T17:01:11.280Z,75026.22
2023-01-19T17:03:41.316Z,75282.31
2023-01-19T17:06:11.956Z,75026.22
2023-01-19T17:08:40.957Z,75538.44
2023-01-19T17:11:11.632Z,76306.91
2023-01-19T17:13:40.502Z,76306.91
2023-01-19T17:16:09.679Z,75538.44
2023-01-19T17:18:41.652Z,76563.09
2023-01-19T17:21:11.671Z,76306.91
2023-01-19T17:23:44.060Z,77588.03
2023-01-19T17:26:12.716Z,78613.28
2023-01-19T17:28:41.652Z,78869.66
2023-01-19T17:31:12.430Z,78100.63
2023-01-19T17:33:44.853Z,76819.28
2023-01-19T17:36:15.456Z,76563.09
2023-01-19T17:38:44.361Z,77331.78
2023-01-19T17:41:17.784Z,77588.03
2023-01-19T17:43:46.492Z,77588.03
2023-01-19T17:46:15.499Z,77331.78
2023-01-19T17:48:45.590Z,77075.53
2023-01-19T17:51:14.630Z,78100.63
2023-01-19T17:53:43.931Z,79638.84
2023-01-19T17:56:14.254Z,80664.72
2023-01-19T17:58:42.976Z,81434.31
2023-01-19T18:01:13.336Z,81690.91
2023-01-19T18:03:42.349Z,81947.50
2023-01-19T18:06:12.643Z,82460.72
2023-01-19T18:08:42.875Z,82460.72
2023-01-19T18:11:12.377Z,82717.38
2023-01-19T18:13:44.544Z,83230.72
2023-01-19T18:16:15.394Z,83487.44
2023-01-19T18:18:44.236Z,83744.16
2023-01-19T18:21:15.474Z,83487.44
2023-01-19T18:23:45.218Z,83230.72
2023-01-19T18:26:16.070Z,82974.03
2023-01-19T18:28:44.714Z,83487.44
2023-01-19T18:31:15.508Z,83744.16
2023-01-19T18:33:44.389Z,83744.16
2023-01-19T18:36:14.382Z,83744.16
2023-01-19T18:38:43.107Z,82974.03
2023-01-19T18:41:13.431Z,81690.91
2023-01-19T18:43:42.157Z,82460.72
2023-01-19T18:46:11.600Z,81947.50
2023-01-19T18:48:40.925Z,81690.91
2023-01-19T18:51:11.122Z,80921.25
2023-01-19T18:53:41.589Z,79638.84
2023-01-19T18:56:12.894Z,79895.28
2023-01-19T18:58:42.170Z,79895.28
2023-01-19T19:01:20.970Z,78613.28
2023-01-19T19:03:49.835Z,78613.28
2023-01-19T19:06:20.869Z,77844.31
2023-01-19T19:08:52.210Z,76563.09
2023-01-19T19:11:22.262Z,76306.91
2023-01-19T19:13:53.609Z,76306.91
2023-01-19T19:16:22.250Z,73490.06
2023-01-19T19:18:50.839Z,74002.03
2023-01-19T19:21:20.636Z,74002.03
2023-01-19T19:23:53.244Z,74258.06
2023-01-19T19:26:22.030Z,74002.03
2023-01-19T19:28:50.526Z,74258.06
2023-01-19T19:31:21.047Z,74770.16
2023-01-19T19:33:51.212Z,75538.44
2023-01-19T19:36:20.329Z,75282.31
2023-01-19T19:38:48.874Z,76306.91
2023-01-19T19:41:20.880Z,76050.72
2023-01-19T19:43:49.467Z,76819.28
2023-01-19T19:46:20.278Z,76306.91
2023-01-19T19:48:49.811Z,76563.09
2023-01-19T19:51:22.649Z,77588.03
2023-01-19T19:53:51.977Z,77588.03
2023-01-19T19:56:24.087Z,78356.94
2023-01-19T19:58:54.982Z,80151.75
2023-01-19T20:01:28.069Z,80664.72
2023-01-19T20:04:00.011Z,80151.75
2023-01-19T20:06:29.927Z,79895.28
2023-01-19T20:08:58.482Z,78869.66
2023-01-19T20:11:29.138Z,78613.28
2023-01-19T20:13:57.547Z,76563.09
2023-01-19T20:16:26.280Z,76306.91
2023-01-19T20:18:55.369Z,76050.72
2023-01-19T20:21:26.026Z,74514.09
2023-01-19T20:23:56.026Z,75026.22
2023-01-19T20:26:26.871Z,73490.06
2023-01-19T20:29:00.192Z,75282.31
2023-01-19T20:31:31.486Z,76563.09
2023-01-19T20:34:02.945Z,75794.56
2023-01-19T20:36:31.861Z,76050.72
2023-01-19T20:39:00.462Z,75794.56
2023-01-19T20:41:28.970Z,77331.78
2023-01-19T20:43:58.883Z,77331.78
2023-01-19T20:46:27.382Z,78100.63
2023-01-19T20:48:55.809Z,77844.31
2023-01-19T20:51:25.944Z,79126.03
2023-01-19T20:53:54.693Z,79382.44
2023-01-19T20:56:23.411Z,78613.28
2023-01-19T20:58:52.044Z,79126.03
2023-01-19T21:01:24.277Z,79895.28
2023-01-19T21:03:53.646Z,81434.31
2023-01-19T21:06:23.088Z,81177.78
2023-01-19T21:08:51.756Z,81434.31
2023-01-19T21:11:23.995Z,80664.72
2023-01-19T21:13:56.159Z,80921.25
2023-01-19T21:16:27.320Z,81947.50
2023-01-19T21:18:56.155Z,81690.91
2023-01-19T21:21:30.896Z,82460.72
2023-01-19T21:24:01.135Z,83487.44
2023-01-19T21:26:31.136Z,84514.44
2023-01-19T21:29:00.495Z,84257.66
2023-01-19T21:31:31.137Z,85798.66
2023-01-19T21:34:00.114Z,86569.41
2023-01-19T21:36:28.711Z,84771.25
2023-01-19T21:39:00.884Z,83487.44
2023-01-19T21:41:31.159Z,81690.91
2023-01-19T21:44:01.753Z,79895.28
2023-01-19T21:46:33.356Z,80151.75
2023-01-19T21:49:03.935Z,79895.28
2023-01-19T21:51:34.875Z,78613.28
2023-01-19T21:54:05.073Z,79895.28
2023-01-19T21:56:34.698Z,80921.25
2023-01-19T21:59:06.375Z,81434.31
2023-01-19T22:01:36.769Z,82717.38
2023-01-19T22:04:05.743Z,83230.72
2023-01-19T22:06:34.804Z,84000.91
2023-01-19T22:09:03.612Z,84000.91
2023-01-19T22:11:32.135Z,84257.66
2023-01-19T22:14:01.024Z,83230.72
2023-01-19T22:16:31.008Z,83230.72
2023-01-19T22:19:02.501Z,83487.44
2023-01-19T22:21:33.188Z,83487.44
2023-01-19T22:24:03.083Z,83744.16
2023-01-19T22:26:34.143Z,85284.91
2023-01-19T22:29:04.338Z,86055.56
2023-01-19T22:31:33.154Z,85284.91
2023-01-19T22:34:03.161Z,85541.78
2023-01-19T22:36:34.073Z,87083.34
2023-01-19T22:39:03.975Z,88111.41
2023-01-19T22:41:34.213Z,88882.69
2023-01-19T22:44:04.651Z,89654.13
2023-01-19T22:46:34.655Z,89911.31
2023-01-19T22:49:05.286Z,89654.13
2023-01-19T22:51:35.520Z,89911.31
2023-01-19T22:54:05.014Z,89139.81
2023-01-19T22:56:34.711Z,89911.31
2023-01-19T22:59:03.929Z,90682.97
2023-01-19T23:01:34.226Z,90682.97
2023-01-19T23:04:05.554Z,90682.97
2023-01-19T23:06:35.927Z,90940.22
2023-01-19T23:09:07.235Z,90940.22
2023-01-19T23:11:38.570Z,90940.22
2023-01-19T23:14:07.720Z,92226.81
2023-01-19T23:16:37.379Z,92226.81
2023-01-19T23:19:07.598Z,92484.19
2023-01-19T23:21:36.976Z,92999.00
2023-01-19T23:24:06.024Z,93256.44
2023-01-19T23:26:38.253Z,93513.91
2023-01-19T23:29:08.538Z,93513.91
2023-01-19T23:31:40.160Z,93771.38
2023-01-19T23:34:12.153Z,93771.38
2023-01-19T23:36:43.737Z,93771.38
2023-01-19T23:39:15.992Z,94028.84
2023-01-19T23:41:44.448Z,94028.84
2023-01-19T23:44:13.146Z,94286.38
2023-01-19T23:46:41.677Z,94286.38
2023-01-19T23:49:11.540Z,94286.38
2023-01-19T23:51:40.859Z,94543.91
2023-01-19T23:54:09.233Z,94801.44
2023-01-19T23:56:39.053Z,94801.44
2023-01-19T23:59:09.966Z,95059.00
